createdAt,value
2019-02-06T00:01:23.493Z,197.47
2019-02-06T00:06:09.838Z,154.97
2019-02-06T00:10:55.712Z,135.80
2019-02-06T00:15:41.737Z,148.70
2019-02-06T00:20:28.161Z,124.80
2019-02-06T00:25:14.371Z,123.87
2019-02-06T00:30:00.338Z,117.47
2019-02-06T00:34:46.292Z,164.67
2019-02-06T00:39:32.106Z,91.20
2019-02-06T00:44:18.022Z,97.40
2019-02-06T00:49:04.084Z,105.03
2019-02-06T00:53:49.976Z,94.63
2019-02-06T00:58:35.807Z,96.60
2019-02-06T01:03:22.185Z,89.37
2019-02-06T01:08:08.343Z,89.90
2019-02-06T01:12:54.257Z,88.87
2019-02-06T01:17:40.209Z,104.97
2019-02-06T01:22:26.226Z,123.23
2019-02-06T01:27:12.680Z,110.87
2019-02-06T01:31:58.512Z,189.67
2019-02-06T01:36:44.411Z,146.67
2019-02-06T01:41:30.405Z,129.17
2019-02-06T01:46:16.262Z,152.63
2019-02-06T01:51:02.510Z,180.50
2019-02-06T01:55:48.528Z,168.97
2019-02-06T02:00:35.014Z,138.77
2019-02-06T02:05:21.646Z,119.87
2019-02-06T02:10:07.775Z,106.40
2019-02-06T02:14:53.837Z,93.53
2019-02-06T02:19:39.728Z,79.20
2019-02-06T02:24:25.432Z,87.77
2019-02-06T02:29:11.235Z,92.23
2019-02-06T02:33:57.643Z,95.13
2019-02-06T02:38:43.406Z,89.77
2019-02-06T02:43:29.253Z,91.77
2019-02-06T02:48:15.073Z,87.53
2019-02-06T02:53:00.927Z,74.33
2019-02-06T02:57:46.977Z,69.63
2019-02-06T03:02:50.325Z,81.20
2019-02-06T03:07:36.374Z,72.00
2019-02-06T03:12:22.171Z,69.50
2019-02-06T03:17:08.103Z,75.03
2019-02-06T03:21:56.761Z,70.03
2019-02-06T03:26:42.552Z,75.13
2019-02-06T03:31:28.804Z,82.20
2019-02-06T03:36:14.729Z,74.27
2019-02-06T03:41:00.492Z,72.47
2019-02-06T03:45:46.434Z,75.00
2019-02-06T03:50:32.357Z,77.00
2019-02-06T03:55:18.385Z,74.80
2019-02-06T04:00:06.228Z,78.77
2019-02-06T04:04:52.397Z,69.00
2019-02-06T04:09:38.536Z,68.73
2019-02-06T04:14:24.557Z,64.37
2019-02-06T04:19:10.707Z,59.50
2019-02-06T04:23:56.476Z,63.77
2019-02-06T04:28:42.370Z,67.83
2019-02-06T04:33:28.540Z,67.03
2019-02-06T04:38:14.782Z,77.13
2019-02-06T04:43:01.061Z,70.83
2019-02-06T04:47:47.184Z,66.27
2019-02-06T04:52:32.999Z,61.47
2019-02-06T04:57:19.250Z,63.17
2019-02-06T05:02:05.121Z,66.33
2019-02-06T05:06:50.942Z,57.47
2019-02-06T05:11:37.047Z,47.53
2019-02-06T05:16:22.965Z,52.67
2019-02-06T05:21:08.768Z,48.13
2019-02-06T05:25:54.667Z,60.10
2019-02-06T05:30:40.563Z,53.80
2019-02-06T05:35:26.230Z,61.50
2019-02-06T05:40:12.387Z,56.87
2019-02-06T05:44:58.567Z,107.03
2019-02-06T05:49:44.353Z,87.80
2019-02-06T05:54:30.274Z,75.87
2019-02-06T05:59:16.838Z,74.07
2019-02-06T06:04:02.695Z,72.60
2019-02-06T06:08:48.688Z,77.70
2019-02-06T06:13:34.526Z,67.17
2019-02-06T06:18:22.087Z,60.50
2019-02-06T06:23:08.095Z,68.53
2019-02-06T06:27:53.891Z,87.00
2019-02-06T06:32:39.814Z,67.33
2019-02-06T06:37:25.526Z,77.60
2019-02-06T06:42:11.528Z,93.73
2019-02-06T06:46:57.300Z,94.07
2019-02-06T06:51:43.210Z,72.50
2019-02-06T06:56:29.050Z,92.13
2019-02-06T07:01:16.410Z,73.83
2019-02-06T07:06:02.438Z,75.97
2019-02-06T07:11:07.141Z,74.40
2019-02-06T07:15:52.931Z,77.40
2019-02-06T07:20:38.677Z,81.80
2019-02-06T07:25:24.646Z,66.40
2019-02-06T07:30:15.348Z,69.40
2019-02-06T07:35:01.108Z,77.27
2019-02-06T07:39:46.889Z,63.07
2019-02-06T07:44:32.651Z,68.90
2019-02-06T07:49:18.460Z,72.03
2019-02-06T07:54:04.767Z,58.13
2019-02-06T07:58:50.913Z,58.77
2019-02-06T08:03:37.462Z,65.17
2019-02-06T08:08:23.293Z,56.37
2019-02-06T08:13:09.323Z,53.17
2019-02-06T08:17:55.202Z,51.13
2019-02-06T08:22:41.076Z,47.07
2019-02-06T08:27:27.464Z,55.70
2019-02-06T08:32:13.268Z,48.53
2019-02-06T08:36:59.098Z,48.90
2019-02-06T08:41:44.839Z,53.10
2019-02-06T08:46:30.590Z,51.27
2019-02-06T08:51:16.610Z,46.17
2019-02-06T08:56:02.401Z,50.77
2019-02-06T09:00:48.896Z,49.50
2019-02-06T09:05:34.745Z,52.57
2019-02-06T09:10:22.036Z,49.07
2019-02-06T09:15:08.169Z,46.67
2019-02-06T09:19:54.183Z,47.80
2019-02-06T09:24:39.984Z,47.53
2019-02-06T09:29:25.744Z,48.67
2019-02-06T09:34:11.957Z,48.37
2019-02-06T09:38:57.686Z,43.70
2019-02-06T09:43:43.726Z,40.73
2019-02-06T09:48:29.618Z,46.03
2019-02-06T09:53:15.397Z,41.40
2019-02-06T09:58:01.589Z,40.17
2019-02-06T10:02:47.542Z,38.40
2019-02-06T10:07:33.366Z,38.63
2019-02-06T10:12:19.333Z,46.27
2019-02-06T10:17:05.513Z,44.30
2019-02-06T10:21:53.518Z,44.33
2019-02-06T10:26:38.834Z,45.20
2019-02-06T10:31:24.705Z,52.17
2019-02-06T10:36:10.891Z,52.47
2019-02-06T10:40:56.911Z,45.53
2019-02-06T10:45:42.767Z,52.37
2019-02-06T10:50:31.407Z,43.43
2019-02-06T10:55:17.619Z,50.20
2019-02-06T11:00:03.836Z,46.30
2019-02-06T11:04:49.929Z,48.30
2019-02-06T11:09:45.874Z,51.83
2019-02-06T11:14:23.266Z,39.10
2019-02-06T11:19:09.061Z,47.17
2019-02-06T11:23:55.126Z,52.13
2019-02-06T11:28:40.951Z,41.63
2019-02-06T11:33:27.002Z,43.93
2019-02-06T11:38:12.950Z,45.13
2019-02-06T11:42:58.998Z,47.77
2019-02-06T11:47:45.653Z,40.27
2019-02-06T11:52:31.705Z,44.23
2019-02-06T11:57:17.801Z,42.47
2019-02-06T12:02:03.587Z,47.67
2019-02-06T12:06:49.544Z,47.77
2019-02-06T12:11:35.362Z,47.57
2019-02-06T12:16:21.777Z,48.07
2019-02-06T12:21:08.171Z,46.93
2019-02-06T12:25:55.115Z,45.17
2019-02-06T12:30:41.188Z,49.57
2019-02-06T12:35:27.139Z,49.13
2019-02-06T12:40:21.659Z,45.03
2019-02-06T12:45:01.987Z,45.30
2019-02-06T12:49:47.860Z,47.03
2019-02-06T12:54:33.629Z,46.97
2019-02-06T12:59:19.417Z,39.20
2019-02-06T13:04:05.554Z,37.87
2019-02-06T13:08:51.444Z,41.07
2019-02-06T13:13:37.268Z,44.23
2019-02-06T13:18:24.237Z,42.83
2019-02-06T13:23:10.440Z,39.50
2019-02-06T13:27:56.255Z,38.07
2019-02-06T13:32:42.052Z,36.33
2019-02-06T13:37:28.076Z,43.97
2019-02-06T13:42:13.999Z,43.33
2019-02-06T13:46:59.950Z,46.60
2019-02-06T13:51:45.779Z,47.80
2019-02-06T13:56:31.618Z,40.70
2019-02-06T14:01:25.315Z,50.10
2019-02-06T14:06:05.459Z,48.20
2019-02-06T14:11:00.255Z,41.30
2019-02-06T14:15:40.964Z,45.10
2019-02-06T14:20:27.415Z,47.40
2019-02-06T14:25:55.635Z,45.93
2019-02-06T14:31:28.403Z,43.90
2019-02-06T14:37:27.667Z,47.57
2019-02-06T14:42:58.957Z,48.60
2019-02-06T14:48:18.435Z,52.00
2019-02-06T14:53:15.685Z,44.67
2019-02-06T14:58:43.014Z,49.67
2019-02-06T15:04:08.576Z,49.13
2019-02-06T15:09:32.350Z,56.37
2019-02-06T15:14:52.533Z,49.93
2019-02-06T15:20:05.834Z,54.37
2019-02-06T15:25:47.334Z,52.97
2019-02-06T15:31:19.634Z,53.53
2019-02-06T15:36:20.309Z,49.23
2019-02-06T15:41:15.854Z,51.47
2019-02-06T15:46:33.780Z,49.77
2019-02-06T15:52:04.888Z,59.10
2019-02-06T15:57:54.877Z,53.43
2019-02-06T16:03:28.810Z,53.77
2019-02-06T16:09:01.710Z,56.73
2019-02-06T16:14:34.293Z,67.63
2019-02-06T16:20:05.774Z,63.40
2019-02-06T16:25:08.500Z,56.23
2019-02-06T16:30:17.539Z,68.00
2019-02-06T16:35:19.241Z,65.80
2019-02-06T16:40:39.875Z,81.57
2019-02-06T16:46:05.370Z,72.37
2019-02-06T16:51:21.712Z,82.33
2019-02-06T16:57:15.501Z,85.60
2019-02-06T17:02:31.356Z,91.03
2019-02-06T17:07:50.113Z,88.13
2019-02-06T17:13:00.052Z,96.97
2019-02-06T17:18:37.212Z,82.57
2019-02-06T17:24:03.033Z,79.13
2019-02-06T17:29:28.541Z,84.57
2019-02-06T17:34:58.913Z,73.93
2019-02-06T17:40:27.573Z,81.63
2019-02-06T17:45:38.951Z,76.93
2019-02-06T17:51:08.364Z,73.87
2019-02-06T17:55:54.485Z,76.47
2019-02-06T18:01:00.804Z,190.57
2019-02-06T18:05:47.776Z,81.97
2019-02-06T18:10:33.958Z,86.03
2019-02-06T18:15:20.265Z,76.77
2019-02-06T18:20:09.269Z,78.53
2019-02-06T18:24:55.444Z,76.83
2019-02-06T18:29:41.716Z,77.10
2019-02-06T18:34:27.812Z,79.40
2019-02-06T18:39:15.737Z,88.77
2019-02-06T18:44:01.558Z,83.03
2019-02-06T18:48:47.881Z,84.53
2019-02-06T18:53:34.160Z,75.30
2019-02-06T18:58:20.642Z,68.73
2019-02-06T19:03:10.350Z,81.80
2019-02-06T19:07:56.623Z,73.43
2019-02-06T19:12:48.166Z,82.83
2019-02-06T19:17:30.946Z,83.77
2019-02-06T19:22:17.374Z,80.67
2019-02-06T19:27:04.061Z,85.87
2019-02-06T19:31:50.250Z,73.33
2019-02-06T19:36:36.575Z,74.87
2019-02-06T19:41:22.830Z,71.67
2019-02-06T19:46:09.038Z,67.90
2019-02-06T19:50:55.295Z,78.97
2019-02-06T19:55:41.386Z,73.20
2019-02-06T20:00:46.236Z,76.60
2019-02-06T20:05:32.624Z,80.67
2019-02-06T20:10:27.564Z,81.87
2019-02-06T20:15:13.848Z,79.43
2019-02-06T20:20:00.107Z,87.83
2019-02-06T20:24:46.520Z,91.57
2019-02-06T20:29:32.436Z,86.20
2019-02-06T20:34:18.579Z,85.37
2019-02-06T20:39:07.052Z,101.87
2019-02-06T20:43:52.851Z,111.97
2019-02-06T20:48:39.267Z,131.50
2019-02-06T20:53:25.366Z,131.23
2019-02-06T20:58:11.493Z,121.87
2019-02-06T21:02:57.771Z,105.17
2019-02-06T21:07:46.286Z,99.77
2019-02-06T21:12:31.510Z,92.93
2019-02-06T21:17:17.697Z,108.47
2019-02-06T21:22:03.693Z,106.53
2019-02-06T21:26:49.931Z,98.87
2019-02-06T21:31:36.298Z,95.83
2019-02-06T21:36:22.306Z,98.73
2019-02-06T21:41:08.465Z,85.97
2019-02-06T21:45:54.566Z,96.10
2019-02-06T21:50:40.811Z,102.77
2019-02-06T21:55:26.801Z,115.80
2019-02-06T22:00:16.427Z,97.30
2019-02-06T22:05:02.830Z,82.37
2019-02-06T22:09:49.194Z,104.17
2019-02-06T22:14:35.468Z,90.70
2019-02-06T22:19:21.972Z,90.93
2019-02-06T22:24:08.348Z,93.70
2019-02-06T22:28:54.371Z,81.20
2019-02-06T22:33:41.223Z,88.53
2019-02-06T22:38:27.095Z,81.03
2019-02-06T22:43:13.110Z,77.03
2019-02-06T22:47:59.758Z,87.27
2019-02-06T22:52:46.085Z,82.50
2019-02-06T22:57:31.940Z,72.80
2019-02-06T23:02:17.696Z,80.40
2019-02-06T23:07:03.467Z,80.23
2019-02-06T23:11:49.280Z,87.90
2019-02-06T23:16:35.207Z,76.73
2019-02-06T23:21:21.269Z,88.57
2019-02-06T23:26:07.297Z,79.47
2019-02-06T23:30:53.191Z,87.87
2019-02-06T23:35:39.286Z,70.87
2019-02-06T23:40:25.160Z,79.47
2019-02-06T23:45:11.644Z,81.60
2019-02-06T23:49:57.679Z,73.03
2019-02-06T23:54:43.506Z,73.90
2019-02-06T23:59:29.314Z,74.07
